Time,TemperatureF,DewpointF,PressureIn,WindDirection,WindDirectionDegrees,WindSpeedMPH,WindSpeedGustMPH,Humidity,HourlyPrecipIn,Conditions,Clouds,dailyrainin,SolarRadiationWatts/m^2,SoftwareType,DateUTC
2013-01-08 00:01:00,37.3,27.0,30.23,ESE,113,2.0,3.0,67,0.00,,,0.00,0,weatherlink.com 1.10,2013-01-08 06:01:00,
2013-01-08 00:16:00,37.2,27.0,30.23,ESE,113,1.0,2.0,67,0.00,,,0.00,0,weatherlink.com 1.10,2013-01-08 06:16:00,
2013-01-08 00:31:00,37.2,28.0,30.22,ESE,114,0.0,3.0,69,0.00,,,0.00,0,weatherlink.com 1.10,2013-01-08 06:31:00,
2013-01-08 00:46:00,36.8,28.0,30.21,ESE,114,0.0,2.0,70,0.00,,,0.00,0,weatherlink.com 1.10,2013-01-08 06:46:00,
2013-01-08 01:01:00,36.6,28.0,30.22,ESE,114,1.0,1.0,71,0.00,,,0.00,0,weatherlink.com 1.10,2013-01-08 07:01:00,
2013-01-08 01:16:00,36.4,28.0,30.22,ESE,114,1.0,2.0,71,0.00,,,0.00,0,weatherlink.com 1.10,2013-01-08 07:16:00,
2013-01-08 01:31:00,36.6,28.0,30.23,ESE,114,0.0,1.0,71,0.00,,,0.00,0,weatherlink.com 1.10,2013-01-08 07:31:00,
2013-01-08 01:46:00,36.6,28.0,30.23,ESE,114,0.0,2.0,70,0.00,,,0.00,0,weatherlink.com 1.10,2013-01-08 07:46:00,
2013-01-08 02:01:00,36.1,28.0,30.23,ESE,114,0.0,1.0,73,0.00,,,0.00,0,weatherlink.com 1.10,2013-01-08 08:01:00,
2013-01-08 02:16:00,34.7,28.0,30.23,ESE,114,1.0,2.0,76,0.00,,,0.00,0,weatherlink.com 1.10,2013-01-08 08:16:00,
2013-01-08 02:31:00,33.3,27.0,30.23,ESE,114,1.0,1.0,79,0.00,,,0.00,0,weatherlink.com 1.10,2013-01-08 08:31:00,
2013-01-08 02:46:00,33.2,27.0,30.23,ESE,114,0.0,1.0,79,0.00,,,0.00,0,weatherlink.com 1.10,2013-01-08 08:46:00,
2013-01-08 03:01:00,32.4,27.0,30.22,ESE,114,0.0,1.0,81,0.00,,,0.00,0,weatherlink.com 1.10,2013-01-08 09:01:00,
2013-01-08 03:16:00,31.7,27.0,30.21,ESE,114,1.0,2.0,83,0.00,,,0.00,0,weatherlink.com 1.10,2013-01-08 09:16:00,
2013-01-08 03:31:00,31.5,27.0,30.21,ESE,114,1.0,2.0,83,0.00,,,0.00,0,weatherlink.com 1.10,2013-01-08 09:31:00,
2013-01-08 03:46:00,31.5,27.0,30.21,ESE,114,1.0,1.0,83,0.00,,,0.00,0,weatherlink.com 1.10,2013-01-08 09:46:00,
2013-01-08 04:01:00,32.2,28.0,30.21,ESE,114,1.0,2.0,83,0.00,,,0.00,0,weatherlink.com 1.10,2013-01-08 10:01:00,
2013-01-08 04:16:00,33.0,28.0,30.21,ESE,114,1.0,2.0,82,0.00,,,0.00,0,weatherlink.com 1.10,2013-01-08 10:16:00,
2013-01-08 04:31:00,33.9,29.0,30.21,ESE,114,1.0,2.0,81,0.00,,,0.00,0,weatherlink.com 1.10,2013-01-08 10:31:00,
2013-01-08 04:46:00,34.9,29.0,30.21,ESE,115,0.0,2.0,79,0.00,,,0.00,0,weatherlink.com 1.10,2013-01-08 10:46:00,
2013-01-08 05:01:00,35.0,29.0,30.21,ESE,115,2.0,2.0,78,0.00,,,0.00,0,weatherlink.com 1.10,2013-01-08 11:01:00,
2013-01-08 05:16:00,35.2,29.0,30.22,ESE,115,0.0,3.0,79,0.00,,,0.00,0,weatherlink.com 1.10,2013-01-08 11:16:00,
2013-01-08 05:31:00,35.5,29.0,30.22,ESE,114,1.0,2.0,78,0.00,,,0.00,0,weatherlink.com 1.10,2013-01-08 11:31:00,
2013-01-08 05:46:00,35.5,29.0,30.23,ESE,114,1.0,3.0,78,0.00,,,0.00,0,weatherlink.com 1.10,2013-01-08 11:46:00,
2013-01-08 06:01:00,35.7,29.0,30.23,ESE,114,1.0,3.0,78,0.00,,,0.00,0,weatherlink.com 1.10,2013-01-08 12:01:00,
2013-01-08 06:16:00,35.6,29.0,30.24,ESE,114,0.0,2.0,78,0.00,,,0.00,0,weatherlink.com 1.10,2013-01-08 12:16:00,
2013-01-08 06:31:00,35.5,30.0,30.24,ESE,114,0.0,2.0,79,0.00,,,0.00,0,weatherlink.com 1.10,2013-01-08 12:31:00,
2013-01-08 06:46:00,34.6,29.0,30.24,ESE,114,2.0,2.0,80,0.00,,,0.00,0,weatherlink.com 1.10,2013-01-08 12:46:00,
2013-01-08 07:01:00,33.3,29.0,30.25,SE,135,2.0,2.0,83,0.00,,,0.00,0,weatherlink.com 1.10,2013-01-08 13:01:00,
2013-01-08 07:17:00,34.2,30.0,30.25,SE,136,1.0,3.0,83,0.00,,,0.00,7,weatherlink.com 1.10,2013-01-08 13:17:00,
2013-01-08 07:31:00,34.0,29.0,30.26,SE,139,1.0,2.0,82,0.00,,,0.00,12,weatherlink.com 1.10,2013-01-08 13:31:00,
2013-01-08 07:47:00,33.0,29.0,30.26,SE,139,0.0,3.0,84,0.00,,,0.00,16,weatherlink.com 1.10,2013-01-08 13:47:00,
2013-01-08 08:02:00,33.9,30.0,30.27,ESE,105,2.0,3.0,85,0.00,,,0.00,35,weatherlink.com 1.10,2013-01-08 14:02:00,
2013-01-08 08:16:00,36.5,31.0,30.26,ESE,109,1.0,4.0,81,0.00,,,0.00,77,weatherlink.com 1.10,2013-01-08 14:16:00,
2013-01-08 08:32:00,38.4,32.0,30.26,ESE,118,4.0,7.0,78,0.00,,,0.00,179,weatherlink.com 1.10,2013-01-08 14:32:00,
2013-01-08 08:47:00,39.9,33.0,30.27,SSE,155,2.0,4.0,76,0.00,,,0.00,237,weatherlink.com 1.10,2013-01-08 14:47:00,
2013-01-08 09:03:00,42.2,34.0,30.28,South,180,4.0,6.0,73,0.00,,,0.00,278,weatherlink.com 1.10,2013-01-08 15:03:00,
2013-01-08 09:18:00,43.4,35.0,30.28,ESE,112,3.0,8.0,71,0.00,,,0.00,320,weatherlink.com 1.10,2013-01-08 15:18:00,
2013-01-08 09:33:00,44.8,36.0,30.29,SE,133,5.0,8.0,70,0.00,,,0.00,355,weatherlink.com 1.10,2013-01-08 15:33:00,
2013-01-08 09:48:00,45.8,36.0,30.29,SSE,159,6.0,9.0,68,0.00,,,0.00,408,weatherlink.com 1.10,2013-01-08 15:48:00,
2013-01-08 10:03:00,47.6,36.0,30.28,SSE,166,4.0,7.0,65,0.00,,,0.00,450,weatherlink.com 1.10,2013-01-08 16:03:00,
2013-01-08 10:18:00,48.9,37.0,30.28,SE,145,6.0,9.0,63,0.00,,,0.00,434,weatherlink.com 1.10,2013-01-08 16:18:00,
2013-01-08 10:33:00,49.5,37.0,30.28,South,172,3.0,8.0,62,0.00,,,0.00,436,weatherlink.com 1.10,2013-01-08 16:33:00,
2013-01-08 10:50:00,51.3,38.0,30.27,SSE,153,4.0,9.0,60,0.00,,,0.00,508,weatherlink.com 1.10,2013-01-08 16:50:00,
2013-01-08 11:05:00,52.2,38.0,30.27,SSW,192,6.0,9.0,59,0.00,,,0.00,308,weatherlink.com 1.10,2013-01-08 17:05:00,
2013-01-08 11:20:00,51.9,37.0,30.24,SSE,158,3.0,5.0,58,0.00,,,0.00,357,weatherlink.com 1.10,2013-01-08 17:20:00,
2013-01-08 11:35:00,52.9,38.0,30.23,SE,138,3.0,5.0,57,0.00,,,0.00,475,weatherlink.com 1.10,2013-01-08 17:35:00,
2013-01-08 11:50:00,54.2,39.0,30.23,SE,140,3.0,7.0,56,0.00,,,0.00,575,weatherlink.com 1.10,2013-01-08 17:50:00,
2013-01-08 12:05:00,54.9,38.0,30.23,SSE,168,3.0,7.0,54,0.00,,,0.00,448,weatherlink.com 1.10,2013-01-08 18:05:00,
2013-01-08 12:20:00,54.9,39.0,30.21,South,170,4.0,7.0,55,0.00,,,0.00,243,weatherlink.com 1.10,2013-01-08 18:20:00,
2013-01-08 12:35:00,55.0,39.0,30.21,South,185,3.0,6.0,56,0.00,,,0.00,265,weatherlink.com 1.10,2013-01-08 18:35:00,
2013-01-08 12:51:00,55.2,39.0,30.19,South,174,3.0,8.0,54,0.00,,,0.00,255,weatherlink.com 1.10,2013-01-08 18:51:00,
2013-01-08 13:06:00,55.5,39.0,30.19,SE,131,4.0,6.0,54,0.00,,,0.00,246,weatherlink.com 1.10,2013-01-08 19:06:00,
2013-01-08 13:22:00,55.8,39.0,30.19,SSE,167,3.0,6.0,54,0.00,,,0.00,225,weatherlink.com 1.10,2013-01-08 19:22:00,
2013-01-08 13:36:00,55.8,38.0,30.19,WSW,255,3.0,7.0,52,0.00,,,0.00,158,weatherlink.com 1.10,2013-01-08 19:36:00,
2013-01-08 13:53:00,56.0,39.0,30.18,SSE,147,0.0,4.0,53,0.00,,,0.00,155,weatherlink.com 1.10,2013-01-08 19:53:00,
2013-01-08 14:06:00,56.2,40.0,30.18,SSE,151,2.0,5.0,54,0.00,,,0.00,167,weatherlink.com 1.10,2013-01-08 20:06:00,
2013-01-08 14:22:00,56.4,40.0,30.18,ENE,65,3.0,6.0,54,0.00,,,0.00,178,weatherlink.com 1.10,2013-01-08 20:22:00,
2013-01-08 14:37:00,56.5,40.0,30.19,ENE,60,4.0,5.0,54,0.00,,,0.00,114,weatherlink.com 1.10,2013-01-08 20:37:00,
2013-01-08 14:53:00,56.4,40.0,30.18,SE,135,2.0,4.0,55,0.00,,,0.00,76,weatherlink.com 1.10,2013-01-08 20:53:00,
2013-01-08 15:07:00,56.4,40.0,30.18,ESE,120,2.0,6.0,54,0.00,,,0.00,84,weatherlink.com 1.10,2013-01-08 21:07:00,
2013-01-08 15:23:00,56.5,40.0,30.17,ESE,109,0.0,5.0,54,0.00,,,0.00,72,weatherlink.com 1.10,2013-01-08 21:23:00,
2013-01-08 15:38:00,56.4,40.0,30.18,SE,124,0.0,3.0,55,0.00,,,0.00,56,weatherlink.com 1.10,2013-01-08 21:38:00,
2013-01-08 15:53:00,56.0,40.0,30.18,SE,136,0.0,2.0,56,0.00,,,0.00,42,weatherlink.com 1.10,2013-01-08 21:53:00,
2013-01-08 16:08:00,55.6,40.0,30.18,East,83,0.0,3.0,57,0.00,,,0.00,33,weatherlink.com 1.10,2013-01-08 22:08:00,
2013-01-08 16:23:00,55.2,40.0,30.18,East,83,0.0,2.0,58,0.00,,,0.00,25,weatherlink.com 1.10,2013-01-08 22:23:00,
2013-01-08 16:40:00,54.6,40.0,30.18,East,83,0.0,0.0,59,0.00,,,0.00,12,weatherlink.com 1.10,2013-01-08 22:40:00,
2013-01-08 16:55:00,54.0,40.0,30.18,East,83,0.0,1.0,60,0.00,,,0.00,0,weatherlink.com 1.10,2013-01-08 22:55:00,
2013-01-08 17:10:00,53.0,41.0,30.18,East,83,0.0,0.0,63,0.00,,,0.00,0,weatherlink.com 1.10,2013-01-08 23:10:00,
2013-01-08 17:25:00,52.0,40.0,30.18,East,83,0.0,1.0,64,0.00,,,0.00,0,weatherlink.com 1.10,2013-01-08 23:25:00,
2013-01-08 17:40:00,51.8,40.0,30.17,East,83,0.0,2.0,65,0.00,,,0.00,0,weatherlink.com 1.10,2013-01-08 23:40:00,
2013-01-08 17:55:00,51.2,41.0,30.17,ESE,111,0.0,3.0,67,0.00,,,0.00,0,weatherlink.com 1.10,2013-01-08 23:55:00,
2013-01-08 18:10:00,52.0,41.0,30.18,ENE,76,0.0,3.0,66,0.00,,,0.00,0,weatherlink.com 1.10,2013-01-09 00:10:00,
2013-01-08 18:25:00,52.2,41.0,30.17,ESE,106,1.0,3.0,66,0.00,,,0.00,0,weatherlink.com 1.10,2013-01-09 00:25:00,
2013-01-08 18:41:00,52.7,41.0,30.17,East,79,2.0,6.0,64,0.00,,,0.00,0,weatherlink.com 1.10,2013-01-09 00:41:00,
2013-01-08 18:56:00,53.1,41.0,30.18,East,100,0.0,3.0,63,0.00,,,0.00,0,weatherlink.com 1.10,2013-01-09 00:56:00,
2013-01-08 19:11:00,53.2,41.0,30.18,ESE,115,4.0,5.0,63,0.00,,,0.00,0,weatherlink.com 1.10,2013-01-09 01:11:00,
2013-01-08 19:26:00,53.6,41.0,30.18,ESE,103,3.0,7.0,62,0.00,,,0.00,0,weatherlink.com 1.10,2013-01-09 01:26:00,
2013-01-08 19:41:00,53.8,40.0,30.17,ESE,114,2.0,8.0,61,0.00,,,0.00,0,weatherlink.com 1.10,2013-01-09 01:41:00,
2013-01-08 19:57:00,53.8,40.0,30.17,ESE,122,2.0,7.0,60,0.00,,,0.00,0,weatherlink.com 1.10,2013-01-09 01:57:00,
2013-01-08 20:11:00,53.8,40.0,30.18,SE,124,2.0,8.0,61,0.00,,,0.00,0,weatherlink.com 1.10,2013-01-09 02:11:00,
2013-01-08 20:26:00,53.6,41.0,30.17,ESE,122,4.0,7.0,62,0.00,,,0.00,0,weatherlink.com 1.10,2013-01-09 02:26:00,
2013-01-08 20:43:00,53.3,40.0,30.16,SE,135,4.0,8.0,62,0.00,,,0.00,0,weatherlink.com 1.10,2013-01-09 02:43:00,
2013-01-08 20:58:00,53.3,41.0,30.16,SE,134,3.0,9.0,63,0.00,,,0.00,0,weatherlink.com 1.10,2013-01-09 02:58:00,
2013-01-08 21:13:00,53.4,41.0,30.16,SSE,158,9.0,13.0,64,0.00,,,0.00,0,weatherlink.com 1.10,2013-01-09 03:13:00,
2013-01-08 21:28:00,53.4,41.0,30.17,SSE,151,3.0,11.0,64,0.00,,,0.00,0,weatherlink.com 1.10,2013-01-09 03:28:00,
2013-01-08 21:43:00,53.4,41.0,30.18,SE,130,2.0,10.0,64,0.00,,,0.00,0,weatherlink.com 1.10,2013-01-09 03:43:00,
2013-01-08 21:58:00,53.3,42.0,30.19,SE,141,6.0,7.0,66,0.00,,,0.00,0,weatherlink.com 1.10,2013-01-09 03:58:00,
2013-01-08 22:13:00,53.4,43.0,30.19,SE,141,4.0,10.0,67,0.00,,,0.00,0,weatherlink.com 1.10,2013-01-09 04:13:00,
2013-01-08 22:29:00,53.7,43.0,30.19,SE,126,4.0,11.0,68,0.00,,,0.00,0,weatherlink.com 1.10,2013-01-09 04:29:00,
2013-01-08 22:44:00,54.0,44.0,30.20,SSE,147,7.0,11.0,68,0.00,,,0.00,0,weatherlink.com 1.10,2013-01-09 04:44:00,
2013-01-08 22:59:00,53.9,43.0,30.20,SE,143,7.0,9.0,68,0.00,,,0.00,0,weatherlink.com 1.10,2013-01-09 04:59:00,
2013-01-08 23:14:00,54.0,44.0,30.20,South,169,6.0,13.0,69,0.00,,,0.00,0,weatherlink.com 1.10,2013-01-09 05:14:00,
2013-01-08 23:29:00,54.3,44.0,30.21,SE,142,8.0,13.0,69,0.00,,,0.00,0,weatherlink.com 1.10,2013-01-09 05:29:00,
2013-01-08 23:44:00,54.2,44.0,30.21,SE,132,8.0,13.0,69,0.00,,,0.00,0,weatherlink.com 1.10,2013-01-09 05:44:00,
2013-01-08 23:59:00,54.3,45.0,30.21,SE,143,7.0,11.0,71,0.00,,,0.00,0,weatherlink.com 1.10,2013-01-09 05:59:00,